createdAt,value
2018-01-26T00:00:57.775Z,0
2018-01-26T00:02:07.496Z,0
2018-01-26T00:03:17.477Z,0
2018-01-26T00:04:27.461Z,0
2018-01-26T00:05:37.444Z,0
2018-01-26T00:06:47.427Z,0
2018-01-26T00:07:57.409Z,0
2018-01-26T00:09:07.395Z,0
2018-01-26T00:10:17.115Z,0
2018-01-26T00:11:27.097Z,0
2018-01-26T00:12:36.816Z,0
2018-01-26T00:13:46.265Z,0
2018-01-26T00:14:56.243Z,0
2018-01-26T00:16:06.222Z,0
2018-01-26T00:17:15.412Z,0
2018-01-26T00:18:25.401Z,0
2018-01-26T00:19:35.381Z,0
2018-01-26T00:20:44.581Z,0
2018-01-26T00:21:54.300Z,0
2018-01-26T00:23:04.283Z,0
2018-01-26T00:24:14.004Z,0
2018-01-26T00:25:23.989Z,0
2018-01-26T00:26:33.441Z,0
2018-01-26T00:27:43.427Z,0
2018-01-26T00:28:53.143Z,0
2018-01-26T00:30:03.124Z,0
2018-01-26T00:31:12.847Z,0
2018-01-26T00:32:22.299Z,0
2018-01-26T00:33:32.287Z,0
2018-01-26T00:34:42.335Z,0
2018-01-26T00:35:52.047Z,0
2018-01-26T00:37:02.025Z,0
2018-01-26T00:38:11.739Z,0
2018-01-26T00:39:21.718Z,0
2018-01-26T00:40:31.702Z,0
2018-01-26T00:41:41.476Z,0
2018-01-26T00:42:51.457Z,0
2018-01-26T00:44:01.474Z,0
2018-01-26T00:45:11.241Z,0
2018-01-26T00:46:20.968Z,0
2018-01-26T00:47:30.957Z,0
2018-01-26T00:48:40.945Z,0
2018-01-26T00:49:50.657Z,0
2018-01-26T00:51:00.692Z,0
2018-01-26T00:52:10.144Z,0
2018-01-26T00:53:19.864Z,0
2018-01-26T00:54:29.581Z,0
2018-01-26T00:55:39.569Z,0
2018-01-26T00:56:49.563Z,0
2018-01-26T00:57:59.547Z,0
2018-01-26T00:59:09.272Z,0
2018-01-26T01:00:18.987Z,0
2018-01-26T01:01:28.711Z,0
2018-01-26T01:02:38.433Z,0
2018-01-26T01:03:48.152Z,0
2018-01-26T01:04:58.134Z,0
2018-01-26T01:06:07.856Z,0
2018-01-26T01:07:17.958Z,0
2018-01-26T01:08:27.940Z,0
2018-01-26T01:09:37.665Z,0
2018-01-26T01:10:47.650Z,0
2018-01-26T01:11:57.375Z,0
2018-01-26T01:13:07.359Z,0
2018-01-26T01:14:17.080Z,0
2018-01-26T01:15:27.071Z,0
2018-01-26T01:16:37.054Z,0
2018-01-26T01:17:47.037Z,0
2018-01-26T01:18:56.750Z,0
2018-01-26T01:20:06.740Z,0
2018-01-26T01:21:16.192Z,0
2018-01-26T01:22:26.230Z,0
2018-01-26T01:23:36.213Z,0
2018-01-26T01:24:45.926Z,0
2018-01-26T01:25:55.648Z,0
2018-01-26T01:27:05.365Z,0
2018-01-26T01:28:15.185Z,0
2018-01-26T01:29:24.908Z,0
2018-01-26T01:30:34.892Z,0
2018-01-26T01:31:44.886Z,0
2018-01-26T01:32:54.602Z,0
2018-01-26T01:34:04.321Z,0
2018-01-26T01:35:14.036Z,0
2018-01-26T01:36:24.019Z,0
2018-01-26T01:37:34.003Z,0
2018-01-26T01:38:43.983Z,0
2018-01-26T01:39:53.704Z,0
2018-01-26T01:41:03.425Z,0
2018-01-26T01:42:13.152Z,0
2018-01-26T01:43:23.130Z,0
2018-01-26T01:44:33.115Z,0
2018-01-26T01:45:43.092Z,0
2018-01-26T01:46:52.817Z,0
2018-01-26T01:48:02.806Z,0
2018-01-26T01:49:12.523Z,0
2018-01-26T01:50:22.502Z,0
2018-01-26T01:51:32.225Z,0
2018-01-26T01:52:41.675Z,0
2018-01-26T01:53:51.394Z,0
2018-01-26T01:55:01.112Z,0
2018-01-26T01:56:11.095Z,0
2018-01-26T01:57:20.812Z,0
2018-01-26T01:58:30.798Z,0
2018-01-26T01:59:40.784Z,0
2018-01-26T02:00:50.245Z,0
2018-01-26T02:02:00.227Z,0
2018-01-26T02:03:10.249Z,0
2018-01-26T02:04:20.225Z,0
2018-01-26T02:05:30.210Z,0
2018-01-26T02:06:40.261Z,0
2018-01-26T02:07:50.236Z,0
2018-01-26T02:09:00.218Z,0
2018-01-26T02:10:09.672Z,0
2018-01-26T02:11:19.660Z,0
2018-01-26T02:12:29.639Z,0
2018-01-26T02:13:39.669Z,0
2018-01-26T02:14:49.650Z,0
2018-01-26T02:15:59.361Z,0
2018-01-26T02:17:09.083Z,0
2018-01-26T02:18:18.850Z,0
2018-01-26T02:19:28.840Z,0
2018-01-26T02:20:38.658Z,0
2018-01-26T02:21:48.380Z,0
2018-01-26T02:22:58.110Z,0
2018-01-26T02:24:07.832Z,0
2018-01-26T02:25:17.286Z,0
2018-01-26T02:26:27.318Z,0
2018-01-26T02:27:37.299Z,0
2018-01-26T02:28:47.021Z,0
2018-01-26T02:29:56.743Z,0
2018-01-26T02:31:06.727Z,0
2018-01-26T02:32:16.718Z,0
2018-01-26T02:33:26.708Z,0
2018-01-26T02:34:36.700Z,0
2018-01-26T02:35:46.682Z,0
2018-01-26T02:36:56.674Z,0
2018-01-26T02:38:06.225Z,0
2018-01-26T02:39:15.948Z,0
2018-01-26T02:40:25.688Z,0
2018-01-26T02:41:35.403Z,0
2018-01-26T02:42:45.396Z,0
2018-01-26T02:43:55.436Z,0
2018-01-26T02:45:05.156Z,0
2018-01-26T02:46:14.620Z,0
2018-01-26T02:47:24.612Z,0
2018-01-26T02:48:34.395Z,0
2018-01-26T02:49:43.893Z,0
2018-01-26T02:50:53.613Z,0
2018-01-26T02:52:03.599Z,0
2018-01-26T02:53:13.055Z,0
2018-01-26T02:54:22.777Z,0
2018-01-26T02:55:32.502Z,0
2018-01-26T02:56:42.222Z,0
2018-01-26T02:57:52.214Z,0
2018-01-26T02:59:02.200Z,0
2018-01-26T03:00:12.190Z,0
2018-01-26T03:01:22.425Z,0
2018-01-26T03:02:31.886Z,0
2018-01-26T03:03:41.601Z,0
2018-01-26T03:04:51.588Z,0
2018-01-26T03:06:01.572Z,0
2018-01-26T03:07:11.336Z,0
2018-01-26T03:08:21.053Z,0
2018-01-26T03:09:30.776Z,0
2018-01-26T03:10:40.493Z,0
2018-01-26T03:11:50.473Z,0
2018-01-26T03:13:00.458Z,0
2018-01-26T03:14:10.452Z,0
2018-01-26T03:15:20.433Z,0
2018-01-26T03:16:30.155Z,0
2018-01-26T03:17:39.871Z,0
2018-01-26T03:18:49.851Z,0
2018-01-26T03:19:59.887Z,0
2018-01-26T03:21:09.614Z,0
2018-01-26T03:22:19.596Z,0
2018-01-26T03:23:29.635Z,0
2018-01-26T03:24:39.093Z,0
2018-01-26T03:25:48.809Z,0
2018-01-26T03:26:58.797Z,0
2018-01-26T03:28:08.512Z,0
2018-01-26T03:29:18.495Z,0
2018-01-26T03:30:28.585Z,0
2018-01-26T03:31:38.038Z,0
2018-01-26T03:32:47.758Z,0
2018-01-26T03:33:57.735Z,0
2018-01-26T03:35:07.452Z,0
2018-01-26T03:36:17.171Z,0
2018-01-26T03:37:26.886Z,0
2018-01-26T03:38:36.073Z,0
2018-01-26T03:39:45.800Z,0
2018-01-26T03:40:55.517Z,0
2018-01-26T03:42:04.970Z,0
2018-01-26T03:43:14.685Z,0
2018-01-26T03:44:24.399Z,0
2018-01-26T03:45:34.116Z,0
2018-01-26T03:46:43.570Z,0
2018-01-26T03:47:53.025Z,0
2018-01-26T03:49:03.010Z,0
2018-01-26T03:50:12.731Z,0
2018-01-26T03:51:22.712Z,0
2018-01-26T03:52:32.695Z,0
2018-01-26T03:53:42.411Z,0
2018-01-26T03:54:52.399Z,0
2018-01-26T03:56:02.382Z,0
2018-01-26T03:57:11.838Z,0
2018-01-26T03:58:21.299Z,0
2018-01-26T03:59:31.333Z,0
2018-01-26T04:00:41.310Z,0
2018-01-26T04:04:23.609Z,0
2018-01-26T04:05:33.637Z,0
2018-01-26T04:06:43.663Z,0
2018-01-26T04:07:53.646Z,0
2018-01-26T04:09:03.368Z,0
2018-01-26T04:10:13.101Z,0
2018-01-26T04:11:23.081Z,0
2018-01-26T04:12:32.808Z,0
2018-01-26T04:13:42.788Z,0
2018-01-26T04:14:52.508Z,0
2018-01-26T04:16:02.496Z,0
2018-01-26T04:17:11.945Z,0
2018-01-26T04:18:21.928Z,0
2018-01-26T04:19:31.644Z,0
2018-01-26T04:20:41.370Z,0
2018-01-26T04:21:51.434Z,0
2018-01-26T04:23:01.420Z,0
2018-01-26T04:24:11.134Z,0
2018-01-26T04:25:20.849Z,0
2018-01-26T04:26:30.845Z,0
2018-01-26T04:27:40.824Z,0
2018-01-26T04:28:50.808Z,0
2018-01-26T04:30:00.787Z,0
2018-01-26T04:31:10.507Z,0
2018-01-26T04:32:20.491Z,0
2018-01-26T04:33:30.473Z,0
2018-01-26T04:34:40.188Z,0
2018-01-26T04:35:49.903Z,0
2018-01-26T04:36:59.882Z,0
2018-01-26T04:38:09.900Z,0
2018-01-26T04:39:19.875Z,0
2018-01-26T04:40:29.855Z,0
2018-01-26T04:41:39.833Z,0
2018-01-26T04:42:49.812Z,0
2018-01-26T04:43:59.794Z,0
2018-01-26T04:45:09.881Z,0
2018-01-26T04:46:19.334Z,0
2018-01-26T04:47:29.318Z,0
2018-01-26T04:48:39.039Z,0
2018-01-26T04:49:49.022Z,0
2018-01-26T04:50:59.010Z,0
2018-01-26T04:52:08.993Z,0
2018-01-26T04:53:18.708Z,0
2018-01-26T04:54:28.425Z,0
2018-01-26T04:55:38.405Z,0
2018-01-26T04:56:48.388Z,0
2018-01-26T04:57:58.365Z,0
2018-01-26T04:59:08.082Z,0
2018-01-26T05:00:18.062Z,0
2018-01-26T05:01:27.250Z,0
2018-01-26T05:02:37.248Z,0
2018-01-26T05:03:47.229Z,0
2018-01-26T05:04:56.942Z,0
2018-01-26T05:06:06.131Z,0
2018-01-26T05:07:15.864Z,0
2018-01-26T05:08:25.846Z,0
2018-01-26T05:09:35.821Z,0
2018-01-26T05:10:45.537Z,0
2018-01-26T05:11:55.255Z,0
2018-01-26T05:13:05.236Z,0
2018-01-26T05:14:14.692Z,0
2018-01-26T05:15:24.405Z,0
2018-01-26T05:16:34.427Z,0
2018-01-26T05:17:44.413Z,0
2018-01-26T05:18:54.403Z,0
2018-01-26T05:20:04.398Z,0
2018-01-26T05:21:14.112Z,0
2018-01-26T05:22:24.098Z,0
2018-01-26T05:23:34.085Z,0
2018-01-26T05:24:43.801Z,0
2018-01-26T05:25:53.516Z,0
2018-01-26T05:27:03.492Z,0
2018-01-26T05:28:12.683Z,0
2018-01-26T05:29:22.399Z,0
2018-01-26T05:30:32.113Z,0
2018-01-26T05:31:42.093Z,0
2018-01-26T05:32:51.546Z,0
2018-01-26T05:34:01.258Z,0
2018-01-26T05:35:10.182Z,0
2018-01-26T05:36:20.163Z,0
2018-01-26T05:37:30.243Z,0
2018-01-26T05:38:40.229Z,0
2018-01-26T05:39:50.213Z,0
2018-01-26T05:40:59.933Z,0
2018-01-26T05:42:09.124Z,0
2018-01-26T05:43:18.943Z,0
2018-01-26T05:44:28.695Z,0
2018-01-26T05:45:38.735Z,0
2018-01-26T05:46:48.454Z,0
2018-01-26T05:47:58.436Z,0
2018-01-26T05:49:08.415Z,0
2018-01-26T05:50:18.134Z,0
2018-01-26T05:51:27.846Z,0
2018-01-26T05:52:37.825Z,0
2018-01-26T05:53:47.804Z,0
2018-01-26T05:54:57.517Z,0
2018-01-26T05:56:07.590Z,0
2018-01-26T05:57:17.047Z,0
2018-01-26T05:58:27.036Z,0
2018-01-26T05:59:37.020Z,0
2018-01-26T06:00:46.786Z,0
2018-01-26T06:01:56.765Z,0
2018-01-26T06:03:06.216Z,0
2018-01-26T06:04:16.198Z,0
2018-01-26T06:05:26.179Z,0
2018-01-26T06:06:36.156Z,0
2018-01-26T06:07:45.081Z,0
2018-01-26T06:08:55.064Z,0
2018-01-26T06:10:04.789Z,0
2018-01-26T06:11:14.500Z,0
2018-01-26T06:12:24.220Z,0
2018-01-26T06:13:34.205Z,0
2018-01-26T06:14:44.229Z,0
2018-01-26T06:15:54.212Z,0
2018-01-26T06:17:04.195Z,0
2018-01-26T06:18:13.907Z,0
2018-01-26T06:19:23.630Z,0
2018-01-26T06:20:33.611Z,0
2018-01-26T06:21:43.323Z,0
2018-01-26T06:22:53.297Z,0
2018-01-26T06:24:03.332Z,0
2018-01-26T06:25:13.050Z,0
2018-01-26T06:26:23.043Z,0
2018-01-26T06:27:32.759Z,0
2018-01-26T06:28:42.788Z,0
2018-01-26T06:29:52.767Z,0
2018-01-26T06:31:02.221Z,0
2018-01-26T06:32:12.252Z,0
2018-01-26T06:33:22.296Z,0
2018-01-26T06:34:31.748Z,0
2018-01-26T06:35:40.934Z,0
2018-01-26T06:36:50.909Z,0
2018-01-26T06:38:00.633Z,0
2018-01-26T06:39:10.356Z,0
2018-01-26T06:40:20.071Z,0
2018-01-26T06:41:29.261Z,0
2018-01-26T06:42:39.237Z,0
2018-01-26T06:43:48.954Z,0
2018-01-26T06:44:58.943Z,0
2018-01-26T06:46:08.130Z,0
2018-01-26T06:47:17.845Z,0
2018-01-26T06:48:27.608Z,0
2018-01-26T06:49:37.588Z,0
2018-01-26T06:50:47.571Z,0
2018-01-26T06:51:57.548Z,0
2018-01-26T06:53:07.318Z,0
2018-01-26T06:54:17.297Z,0
2018-01-26T06:55:27.023Z,0
2018-01-26T06:56:37.004Z,0
2018-01-26T06:57:46.982Z,0
2018-01-26T06:58:56.969Z,0
2018-01-26T07:00:06.426Z,0
2018-01-26T07:01:15.878Z,0
2018-01-26T07:02:25.861Z,4
2018-01-26T07:03:35.578Z,4
2018-01-26T07:04:45.576Z,4
2018-01-26T07:05:55.554Z,4
2018-01-26T07:07:05.268Z,0
2018-01-26T07:08:14.981Z,4
2018-01-26T07:09:24.695Z,4
2018-01-26T07:10:34.415Z,4
2018-01-26T07:11:44.132Z,4
2018-01-26T07:12:54.113Z,8
2018-01-26T07:14:03.831Z,4
2018-01-26T07:15:13.552Z,8
2018-01-26T07:16:23.537Z,8
2018-01-26T07:17:33.527Z,12
2018-01-26T07:18:42.981Z,12
2018-01-26T07:19:52.438Z,16
2018-01-26T07:21:02.423Z,16
2018-01-26T07:22:12.136Z,20
2018-01-26T07:23:21.853Z,24
2018-01-26T07:24:31.569Z,28
2018-01-26T07:25:41.548Z,28
2018-01-26T07:26:51.526Z,32
2018-01-26T07:28:01.249Z,36
2018-01-26T07:29:10.965Z,44
2018-01-26T07:30:20.678Z,48
2018-01-26T07:31:30.689Z,56
2018-01-26T07:32:39.894Z,60
2018-01-26T07:33:49.616Z,68
2018-01-26T07:34:59.604Z,76
2018-01-26T07:36:09.585Z,88
2018-01-26T07:37:19.560Z,96
2018-01-26T07:38:29.555Z,108
2018-01-26T07:39:39.688Z,120
2018-01-26T07:40:49.410Z,136
2018-01-26T07:41:59.450Z,148
2018-01-26T07:43:08.909Z,164
2018-01-26T07:44:18.910Z,180
2018-01-26T07:45:29.407Z,196
2018-01-26T07:46:39.392Z,220
2018-01-26T07:47:49.110Z,236
2018-01-26T07:48:59.091Z,252
2018-01-26T07:50:08.806Z,268
2018-01-26T07:51:18.888Z,292
2018-01-26T07:52:28.605Z,312
2018-01-26T07:53:38.584Z,336
2018-01-26T07:54:48.609Z,364
2018-01-26T07:55:58.584Z,384
2018-01-26T07:57:08.353Z,408
2018-01-26T07:58:17.807Z,428
2018-01-26T07:59:27.519Z,456
2018-01-26T08:00:37.236Z,480
2018-01-26T08:01:47.219Z,512
2018-01-26T08:02:57.205Z,548
2018-01-26T08:04:07.207Z,572
2018-01-26T08:05:17.193Z,604
2018-01-26T08:06:27.142Z,636
2018-01-26T08:07:37.122Z,668
2018-01-26T08:08:46.575Z,696
2018-01-26T08:09:56.556Z,724
2018-01-26T08:11:06.532Z,744
2018-01-26T08:12:16.516Z,772
2018-01-26T08:13:26.247Z,796
2018-01-26T08:14:35.959Z,824
2018-01-26T08:15:45.938Z,852
2018-01-26T08:16:55.916Z,884
2018-01-26T08:18:05.895Z,932
2018-01-26T08:19:15.617Z,980
2018-01-26T08:20:25.596Z,1040
2018-01-26T08:21:35.581Z,1100
2018-01-26T08:22:45.557Z,1164
2018-01-26T08:23:55.535Z,1224
2018-01-26T08:25:05.253Z,1280
2018-01-26T08:26:14.490Z,1328
2018-01-26T08:27:24.477Z,1368
2018-01-26T08:28:34.455Z,1408
2018-01-26T08:29:44.442Z,1432
2018-01-26T08:30:54.436Z,1440
2018-01-26T08:32:04.415Z,1472
2018-01-26T08:33:13.869Z,1512
2018-01-26T08:34:23.851Z,1556
2018-01-26T08:35:33.831Z,1612
2018-01-26T08:36:43.812Z,1676
2018-01-26T08:37:53.525Z,1760
2018-01-26T08:39:03.237Z,1828
2018-01-26T08:40:13.218Z,1884
2018-01-26T08:41:22.934Z,1932
2018-01-26T08:42:32.917Z,1944
2018-01-26T08:43:42.890Z,1924
2018-01-26T08:44:52.882Z,1884
2018-01-26T08:46:02.859Z,1836
2018-01-26T08:47:12.309Z,1728
2018-01-26T08:48:22.290Z,1740
2018-01-26T08:49:32.275Z,1732
2018-01-26T08:50:42.263Z,1628
2018-01-26T08:51:52.242Z,1584
2018-01-26T08:53:02.219Z,1580
2018-01-26T08:54:11.676Z,1568
2018-01-26T08:55:21.399Z,1552
2018-01-26T08:56:31.119Z,1536
2018-01-26T08:57:40.841Z,1532
2018-01-26T08:58:50.815Z,1524
2018-01-26T09:00:00.799Z,1536
2018-01-26T09:01:10.260Z,1560
2018-01-26T09:02:20.235Z,1604
2018-01-26T09:03:29.684Z,1668
2018-01-26T09:04:39.665Z,1784
2018-01-26T09:05:49.654Z,1920
2018-01-26T09:06:59.731Z,2056
2018-01-26T09:08:09.417Z,2132
2018-01-26T09:09:18.339Z,2148
2018-01-26T09:10:27.797Z,2160
2018-01-26T09:11:37.524Z,2168
2018-01-26T09:12:47.528Z,2152
2018-01-26T09:13:57.512Z,2244
2018-01-26T09:15:07.492Z,2404
2018-01-26T09:16:17.471Z,2452
2018-01-26T09:17:27.188Z,2464
2018-01-26T09:18:38.071Z,2568
2018-01-26T09:19:47.785Z,2688
2018-01-26T09:20:57.765Z,2796
2018-01-26T09:22:07.484Z,2864
2018-01-26T09:23:17.470Z,3012
2018-01-26T09:24:27.191Z,2924
2018-01-26T09:25:36.907Z,2916
2018-01-26T09:26:46.623Z,3192
2018-01-26T09:27:56.610Z,3476
2018-01-26T09:29:06.332Z,3876
2018-01-26T09:30:16.317Z,4316
2018-01-26T09:31:26.291Z,4780
2018-01-26T09:32:36.031Z,5024
2018-01-26T09:33:45.482Z,5032
2018-01-26T09:34:55.196Z,4888
2018-01-26T09:36:05.181Z,4876
2018-01-26T09:37:14.902Z,4884
2018-01-26T09:38:24.886Z,4852
2018-01-26T09:39:34.871Z,4792
2018-01-26T09:40:44.871Z,4728
2018-01-26T09:41:54.589Z,4580
2018-01-26T09:43:04.576Z,4352
2018-01-26T09:44:14.300Z,4156
2018-01-26T09:45:24.278Z,4020
2018-01-26T09:46:34.254Z,3956
2018-01-26T09:47:43.980Z,3772
2018-01-26T09:48:53.721Z,3132
2018-01-26T09:50:03.174Z,3040
2018-01-26T09:51:12.894Z,3100
2018-01-26T09:52:22.079Z,3060
2018-01-26T09:53:31.800Z,3032
2018-01-26T09:54:41.517Z,3032
2018-01-26T09:55:51.236Z,2972
2018-01-26T09:57:01.222Z,2952
2018-01-26T09:58:11.203Z,2940
2018-01-26T09:59:20.657Z,2928
2018-01-26T10:00:30.110Z,2920
2018-01-26T10:01:39.564Z,2928
2018-01-26T10:02:49.544Z,2944
2018-01-26T10:03:58.732Z,2940
2018-01-26T10:05:08.501Z,2944
2018-01-26T10:06:18.530Z,3036
2018-01-26T10:07:28.245Z,3068
2018-01-26T10:08:37.961Z,3048
2018-01-26T10:09:47.414Z,3164
2018-01-26T10:10:57.503Z,3140
2018-01-26T10:12:07.484Z,3604
2018-01-26T10:13:17.470Z,3188
2018-01-26T10:14:27.187Z,3500
2018-01-26T10:15:36.904Z,3932
2018-01-26T10:16:46.623Z,4032
2018-01-26T10:17:56.608Z,4172
2018-01-26T10:19:06.323Z,4124
2018-01-26T10:20:16.044Z,4340
2018-01-26T10:21:26.022Z,5340
2018-01-26T10:22:36.008Z,5900
2018-01-26T10:23:45.731Z,6104
2018-01-26T10:24:55.184Z,6744
2018-01-26T10:26:04.912Z,7108
2018-01-26T10:27:14.902Z,7404
2018-01-26T10:28:24.620Z,7636
2018-01-26T10:29:34.337Z,7816
2018-01-26T10:30:44.056Z,7932
2018-01-26T10:31:54.042Z,8016
2018-01-26T10:33:04.041Z,8072
2018-01-26T10:34:13.545Z,8124
2018-01-26T10:35:23.283Z,8224
2018-01-26T10:36:33.300Z,8244
2018-01-26T10:37:43.289Z,8224
2018-01-26T10:38:53.012Z,8112
2018-01-26T10:40:03.006Z,8004
2018-01-26T10:41:12.458Z,7808
2018-01-26T10:42:22.174Z,7448
2018-01-26T10:43:31.890Z,7056
2018-01-26T10:44:41.612Z,6448
2018-01-26T10:45:51.591Z,6672
2018-01-26T10:47:01.308Z,5924
2018-01-26T10:48:11.031Z,5820
2018-01-26T10:49:21.021Z,5732
2018-01-26T10:50:30.748Z,5684
2018-01-26T10:51:40.470Z,5736
2018-01-26T10:52:50.459Z,5740
2018-01-26T10:53:59.913Z,5620
2018-01-26T10:55:09.900Z,5564
2018-01-26T10:56:19.896Z,5472
2018-01-26T10:57:29.894Z,5384
2018-01-26T10:58:39.609Z,5332
2018-01-26T10:59:49.324Z,5228
2018-01-26T11:00:59.050Z,5248
2018-01-26T11:02:08.774Z,5444
2018-01-26T11:03:18.704Z,5624
2018-01-26T11:04:27.894Z,5832
2018-01-26T11:05:37.878Z,6020
2018-01-26T11:06:47.876Z,6000
2018-01-26T11:07:57.861Z,5868
2018-01-26T11:09:08.053Z,5740
2018-01-26T11:10:17.774Z,5472
2018-01-26T11:11:26.969Z,5156
2018-01-26T11:12:35.889Z,4908
2018-01-26T11:13:45.616Z,4632
2018-01-26T11:14:55.068Z,4380
2018-01-26T11:16:04.527Z,4348
2018-01-26T11:17:14.250Z,4352
2018-01-26T11:18:24.233Z,4312
2018-01-26T11:19:34.226Z,4292
2018-01-26T11:20:43.777Z,4332
2018-01-26T11:21:53.769Z,4428
2018-01-26T11:23:03.752Z,4616
2018-01-26T11:24:13.486Z,4848
2018-01-26T11:25:23.473Z,5100
2018-01-26T11:26:33.495Z,5304
2018-01-26T11:27:43.493Z,5576
2018-01-26T11:28:53.224Z,6036
2018-01-26T11:30:02.703Z,6872
2018-01-26T11:31:11.893Z,12348
2018-01-26T11:32:21.935Z,15328
2018-01-26T11:33:31.656Z,20224
2018-01-26T11:34:41.642Z,23456
2018-01-26T11:35:51.363Z,17280
2018-01-26T11:37:01.356Z,13076
2018-01-26T11:38:11.244Z,8772
2018-01-26T11:39:20.965Z,12188
2018-01-26T11:40:30.948Z,8636
2018-01-26T11:41:40.401Z,12144
2018-01-26T11:42:50.387Z,14944
2018-01-26T11:44:00.153Z,17728
2018-01-26T11:45:09.877Z,9472
2018-01-26T11:46:19.592Z,10436
2018-01-26T11:47:29.598Z,10372
2018-01-26T11:48:39.295Z,10368
2018-01-26T11:49:49.289Z,14368
2018-01-26T11:50:59.277Z,16768
2018-01-26T11:52:08.999Z,11000
2018-01-26T11:53:18.725Z,14464
2018-01-26T11:54:28.709Z,23904
2018-01-26T11:55:38.692Z,26976
2018-01-26T11:56:48.683Z,26880
2018-01-26T11:57:58.406Z,25472
2018-01-26T11:59:08.130Z,25216
2018-01-26T12:00:18.122Z,24640
2018-01-26T12:01:27.852Z,25152
2018-01-26T12:02:37.842Z,26336
2018-01-26T12:03:47.577Z,28160
2018-01-26T12:04:57.300Z,28224
2018-01-26T12:06:07.023Z,15104
2018-01-26T12:07:16.485Z,17408
2018-01-26T12:08:26.207Z,31168
2018-01-26T12:09:36.195Z,18400
2018-01-26T12:10:46.188Z,22976
2018-01-26T12:11:56.187Z,8128
2018-01-26T12:13:05.923Z,9072
2018-01-26T12:14:15.385Z,13076
2018-01-26T12:15:25.110Z,9344
2018-01-26T12:16:34.831Z,12392
2018-01-26T12:17:44.836Z,15488
2018-01-26T12:18:54.838Z,11632
2018-01-26T12:20:04.836Z,9620
2018-01-26T12:21:14.301Z,17248
2018-01-26T12:22:24.032Z,11356
2018-01-26T12:23:33.761Z,16672
2018-01-26T12:24:43.220Z,17504
2018-01-26T12:25:52.947Z,14528
2018-01-26T12:27:02.937Z,9364
2018-01-26T12:28:12.660Z,8404
2018-01-26T12:29:22.720Z,8488
2018-01-26T12:30:32.446Z,9016
2018-01-26T12:31:42.173Z,7732
2018-01-26T12:32:52.168Z,7440
2018-01-26T12:34:01.368Z,7408
2018-01-26T12:35:11.111Z,7408
2018-01-26T12:36:21.108Z,7520
2018-01-26T12:37:31.095Z,10792
2018-01-26T12:38:41.095Z,9892
2018-01-26T12:39:50.823Z,8568
2018-01-26T12:41:00.553Z,11928
2018-01-26T12:42:10.016Z,9108
2018-01-26T12:43:19.742Z,10052
2018-01-26T12:44:29.728Z,7740
2018-01-26T12:45:39.740Z,7036
2018-01-26T12:46:49.787Z,6744
2018-01-26T12:47:59.518Z,6576
2018-01-26T12:49:08.447Z,7484
2018-01-26T12:50:18.174Z,6376
2018-01-26T12:51:28.165Z,6176
2018-01-26T12:52:38.158Z,6064
2018-01-26T12:53:48.150Z,5776
2018-01-26T12:54:58.135Z,5664
2018-01-26T12:56:08.126Z,5712
2018-01-26T12:57:18.112Z,6372
2018-01-26T12:58:27.840Z,6284
2018-01-26T12:59:37.927Z,11176
2018-01-26T13:00:47.912Z,6880
2018-01-26T13:01:57.900Z,7088
2018-01-26T13:03:07.626Z,6332
2018-01-26T13:04:17.086Z,5600
2018-01-26T13:05:27.073Z,5448
2018-01-26T13:06:36.534Z,5032
2018-01-26T13:07:46.260Z,4700
2018-01-26T13:08:55.984Z,4468
2018-01-26T13:10:05.439Z,4304
2018-01-26T13:11:15.424Z,4208
2018-01-26T13:12:24.881Z,4148
2018-01-26T13:13:34.342Z,4092
2018-01-26T13:14:44.329Z,3980
2018-01-26T13:15:54.317Z,3896
2018-01-26T13:17:04.304Z,3840
2018-01-26T13:18:14.303Z,3776
2018-01-26T13:19:24.289Z,3676
2018-01-26T13:20:34.014Z,3600
2018-01-26T13:21:43.735Z,3568
2018-01-26T13:22:53.722Z,3556
2018-01-26T13:24:03.187Z,3536
2018-01-26T13:25:12.648Z,3536
2018-01-26T13:26:22.634Z,3572
2018-01-26T13:27:32.111Z,3628
2018-01-26T13:28:41.870Z,3692
2018-01-26T13:29:51.335Z,3740
2018-01-26T13:31:01.057Z,3700
2018-01-26T13:32:11.046Z,3620
2018-01-26T13:33:21.034Z,3520
2018-01-26T13:34:30.755Z,3444
2018-01-26T13:35:40.743Z,3344
2018-01-26T13:36:50.728Z,3276
2018-01-26T13:38:00.760Z,3224
2018-01-26T13:39:10.480Z,3164
2018-01-26T13:40:20.467Z,3120
2018-01-26T13:41:30.453Z,3072
2018-01-26T13:42:40.179Z,3040
2018-01-26T13:43:49.634Z,3036
2018-01-26T13:44:59.616Z,2996
2018-01-26T13:46:09.340Z,2952
2018-01-26T13:47:19.060Z,2924
2018-01-26T13:48:28.794Z,2876
2018-01-26T13:49:38.515Z,2756
2018-01-26T13:50:48.239Z,2572
2018-01-26T13:51:57.963Z,2396
2018-01-26T13:53:07.683Z,2268
2018-01-26T13:54:17.414Z,2184
2018-01-26T13:55:27.409Z,2112
2018-01-26T13:56:37.393Z,2060
2018-01-26T13:57:46.854Z,2032
2018-01-26T13:58:56.308Z,2012
2018-01-26T14:00:05.764Z,2004
2018-01-26T14:01:14.954Z,2024
2018-01-26T14:02:24.412Z,2028
2018-01-26T14:03:34.396Z,2020
2018-01-26T14:04:44.387Z,2000
2018-01-26T14:05:54.372Z,2028
2018-01-26T14:07:03.825Z,2028
2018-01-26T14:08:13.548Z,1984
2018-01-26T14:09:23.306Z,1948
2018-01-26T14:10:33.289Z,1932
2018-01-26T14:11:43.007Z,1932
2018-01-26T14:12:53.039Z,1932
2018-01-26T14:14:03.026Z,1928
2018-01-26T14:15:12.219Z,1924
2018-01-26T14:16:21.939Z,1924
2018-01-26T14:17:31.929Z,1892
2018-01-26T14:18:41.647Z,1848
2018-01-26T14:19:51.386Z,1808
2018-01-26T14:21:01.108Z,1784
2018-01-26T14:22:10.301Z,1756
2018-01-26T14:23:20.022Z,1712
2018-01-26T14:24:30.005Z,1672
2018-01-26T14:25:39.727Z,1648
2018-01-26T14:26:49.498Z,1628
2018-01-26T14:27:59.219Z,1588
2018-01-26T14:29:08.942Z,1564
2018-01-26T14:30:18.995Z,1564
2018-01-26T14:31:28.968Z,1556
2018-01-26T14:32:39.005Z,1536
2018-01-26T14:33:48.726Z,1496
2018-01-26T14:34:58.709Z,1440
2018-01-26T14:36:08.450Z,1388
2018-01-26T14:37:18.434Z,1348
2018-01-26T14:38:28.158Z,1300
2018-01-26T14:39:37.875Z,1256
2018-01-26T14:40:47.597Z,1220
2018-01-26T14:41:57.320Z,1176
2018-01-26T14:43:07.036Z,1140
2018-01-26T14:44:17.019Z,1096
2018-01-26T14:45:26.748Z,1076
2018-01-26T14:46:36.735Z,1072
2018-01-26T14:47:46.449Z,1044
2018-01-26T14:48:56.172Z,1004
2018-01-26T14:50:05.724Z,960
2018-01-26T14:51:15.442Z,920
2018-01-26T14:52:25.422Z,884
2018-01-26T14:53:35.148Z,852
2018-01-26T14:54:44.869Z,816
2018-01-26T14:55:54.852Z,780
2018-01-26T14:57:04.574Z,744
2018-01-26T14:58:14.557Z,704
2018-01-26T14:59:24.539Z,668
2018-01-26T15:00:34.262Z,632
2018-01-26T15:01:43.978Z,600
2018-01-26T15:02:53.700Z,564
2018-01-26T15:04:03.683Z,532
2018-01-26T15:05:13.145Z,500
2018-01-26T15:06:23.131Z,468
2018-01-26T15:07:32.847Z,440
2018-01-26T15:08:42.863Z,408
2018-01-26T15:09:52.613Z,380
2018-01-26T15:11:02.656Z,352
2018-01-26T15:12:12.385Z,328
2018-01-26T15:13:22.109Z,304
2018-01-26T15:14:31.825Z,280
2018-01-26T15:15:41.552Z,260
2018-01-26T15:16:51.271Z,236
2018-01-26T15:18:01.260Z,216
2018-01-26T15:19:10.713Z,204
2018-01-26T15:20:20.167Z,188
2018-01-26T15:21:30.152Z,168
2018-01-26T15:22:40.138Z,160
2018-01-26T15:23:49.855Z,144
2018-01-26T15:24:59.837Z,132
2018-01-26T15:26:09.828Z,120
2018-01-26T15:27:19.812Z,108
2018-01-26T15:28:29.793Z,100
2018-01-26T15:29:39.510Z,88
2018-01-26T15:30:49.495Z,80
2018-01-26T15:31:59.471Z,72
2018-01-26T15:33:09.194Z,64
2018-01-26T15:34:19.177Z,56
2018-01-26T15:35:29.164Z,48
2018-01-26T15:36:39.158Z,44
2018-01-26T15:37:48.872Z,40
2018-01-26T15:38:58.589Z,36
2018-01-26T15:40:08.309Z,28
2018-01-26T15:41:17.762Z,24
2018-01-26T15:42:27.744Z,20
2018-01-26T15:43:37.197Z,20
2018-01-26T15:44:46.649Z,16
2018-01-26T15:45:56.150Z,16
2018-01-26T15:47:06.194Z,12
2018-01-26T15:48:16.183Z,12
2018-01-26T15:49:26.172Z,12
2018-01-26T15:50:36.158Z,8
2018-01-26T15:51:46.140Z,8
2018-01-26T15:52:56.131Z,4
2018-01-26T15:54:05.851Z,4
2018-01-26T15:55:15.571Z,4
2018-01-26T15:56:25.558Z,4
2018-01-26T15:57:35.537Z,4
2018-01-26T15:58:45.524Z,4
2018-01-26T15:59:55.248Z,4
2018-01-26T16:01:04.961Z,0
2018-01-26T16:02:14.682Z,0
2018-01-26T16:03:24.130Z,4
2018-01-26T16:04:33.848Z,4
2018-01-26T16:05:43.832Z,0
2018-01-26T16:06:53.818Z,0
2018-01-26T16:08:03.816Z,0
2018-01-26T16:09:13.530Z,0
2018-01-26T16:10:23.511Z,0
2018-01-26T16:11:33.497Z,0
2018-01-26T16:12:43.208Z,0
2018-01-26T16:13:53.188Z,0
2018-01-26T16:15:02.915Z,0
2018-01-26T16:16:12.384Z,0
2018-01-26T16:17:23.551Z,0
2018-01-26T16:18:33.531Z,0
2018-01-26T16:19:43.259Z,0
2018-01-26T16:20:53.239Z,0
2018-01-26T16:22:02.952Z,0